METAR Data

Data at: 0610 UTC 28 Sep 2022

METAR for:CYCX (Gagetown (MIL), NB, CA)
Text:CYCX 280524Z 21003KT 15SM SKC 12/12 A2987 RMK DENSITY ALT 96FT LAST OBS /NEXT 280800 UTC SLP115
Temperature: 12.0°C ( 54°F)
Dewpoint: 12.0°C ( 54°F) [RH = 100%]
Pressure (altimeter):29.87 inches Hg (1011.6 mb) [Sea level pressure: 1011.5 mb]
Winds:from the SSW (210 degrees) at 3 MPH (3 knots; 1.5 m/s)
Visibility: 15 sm ( 24 km)
Ceiling:at least 12,000 feet AGL
Clouds:clear skies